Time;durP1;ratioP1;P1;durP2;ratioP2;P2;SDS_P1;SDS_P2;PMS_P1;PMS_P2;Temp;Humidity;BMP_temperature;BMP_pressure;BME280_temperature;BME280_humidity;BME280_pressure;Samples;Min_cycle;Max_cycle;Signal;HPM_P1;HPM_P2
2024/03/18 00:01:37;;;;;;;2.95;1.35;;;3.80;99.90;;;;;;2603054;54;20904;31
2024/03/18 00:04:11;;;;;;;3.67;1.67;;;3.80;99.90;;;;;;2603007;54;20026;31
2024/03/18 00:06:45;;;;;;;4.45;1.80;;;3.80;99.90;;;;;;2603011;54;20262;31
2024/03/18 00:09:19;;;;;;;5.47;2.50;;;3.80;99.90;;;;;;2621235;46;20067;31
2024/03/18 00:11:53;;;;;;;4.25;2.20;;;3.90;99.90;;;;;;2602911;54;20808;31
2024/03/18 00:14:30;;;;;;;6.10;2.30;;;3.90;99.90;;;;;;2602923;54;20023;31
2024/03/18 00:17:03;;;;;;;3.35;1.90;;;3.90;99.90;;;;;;2602929;54;20086;31
2024/03/18 00:19:38;;;;;;;4.95;1.73;;;3.80;99.90;;;;;;2621518;46;20658;31
2024/03/18 00:22:11;;;;;;;4.90;1.67;;;3.80;99.90;;;;;;2603093;54;20874;31
2024/03/18 00:24:46;;;;;;;3.80;1.77;;;3.80;99.90;;;;;;2603051;54;20876;31
2024/03/18 00:27:20;;;;;;;2.87;1.40;;;3.70;99.90;;;;;;2621346;46;20046;31
2024/03/18 00:29:53;;;;;;;3.45;1.60;;;3.70;99.90;;;;;;2603090;54;20865;31
2024/03/18 00:32:30;;;;;;;3.28;1.48;;;3.70;99.90;;;;;;2603078;54;20034;31
2024/03/18 00:35:04;;;;;;;3.65;1.70;;;3.70;99.90;;;;;;2602815;54;20097;31
2024/03/18 00:37:37;;;;;;;3.03;1.20;;;3.70;99.90;;;;;;2602895;54;20031;31
2024/03/18 00:40:13;;;;;;;2.20;1.38;;;3.70;99.90;;;;;;2602656;54;20038;31
2024/03/18 00:42:44;;;;;;;5.50;1.77;;;3.70;99.90;;;;;;2602804;54;21024;31
2024/03/18 00:45:18;;;;;;;2.65;0.80;;;3.60;99.90;;;;;;2602685;54;20030;31
2024/03/18 00:47:54;;;;;;;3.63;1.07;;;3.60;99.90;;;;;;2621251;46;20084;31
2024/03/18 00:50:27;;;;;;;1.52;0.82;;;3.50;99.90;;;;;;2621241;46;20123;31
2024/03/18 00:53:03;;;;;;;3.20;1.10;;;3.50;99.90;;;;;;2602952;54;20042;31
2024/03/18 00:55:36;;;;;;;2.35;0.90;;;3.50;99.90;;;;;;2602714;54;20140;31
2024/03/18 00:58:10;;;;;;;1.35;0.70;;;3.50;99.90;;;;;;2602930;54;20872;31
2024/03/18 01:00:47;;;;;;;1.40;0.70;;;3.50;99.90;;;;;;2621083;46;20791;31
2024/03/18 01:03:23;;;;;;;1.60;0.52;;;3.40;99.90;;;;;;2602424;54;20030;31
2024/03/18 01:05:56;;;;;;;2.00;0.77;;;3.40;99.90;;;;;;2621371;46;20045;31
2024/03/18 01:08:29;;;;;;;1.30;0.60;;;3.30;99.90;;;;;;2602574;54;20952;31
2024/03/18 01:11:03;;;;;;;2.42;0.60;;;3.30;99.90;;;;;;2602770;54;20975;31
2024/03/18 01:13:40;;;;;;;1.42;0.88;;;3.30;99.90;;;;;;2602628;54;20848;31
2024/03/18 01:16:11;;;;;;;1.50;0.60;;;3.20;99.90;;;;;;2602764;54;20604;31
2024/03/18 01:18:48;;;;;;;2.35;0.80;;;3.20;99.90;;;;;;2602720;54;20598;31
2024/03/18 01:21:21;;;;;;;2.00;1.10;;;3.20;99.90;;;;;;2602872;54;20877;31
2024/03/18 01:23:55;;;;;;;2.80;1.13;;;3.20;99.90;;;;;;2621237;46;20022;31
2024/03/18 01:26:27;;;;;;;1.73;0.80;;;3.20;99.90;;;;;;2621089;46;20104;31
2024/03/18 01:29:00;;;;;;;1.00;0.73;;;3.30;99.90;;;;;;2602729;54;20026;31
2024/03/18 01:31:35;;;;;;;2.67;1.25;;;3.30;99.90;;;;;;2602872;54;20031;31
2024/03/18 01:34:12;;;;;;;3.10;1.80;;;3.30;99.90;;;;;;2621078;46;20089;31
2024/03/18 01:36:45;;;;;;;1.65;1.08;;;3.30;99.90;;;;;;2602868;54;20089;31
2024/03/18 01:39:20;;;;;;;4.10;1.45;;;3.30;99.90;;;;;;2602770;54;20938;31
2024/03/18 01:41:53;;;;;;;3.33;1.73;;;3.30;99.90;;;;;;2602544;54;20078;31
2024/03/18 01:44:24;;;;;;;3.90;1.20;;;3.30;99.90;;;;;;2621018;47;22349;31
2024/03/18 01:46:59;;;;;;;2.63;1.25;;;3.30;99.90;;;;;;2620802;47;20026;31
2024/03/18 01:49:35;;;;;;;4.07;1.80;;;3.20;99.90;;;;;;2602605;54;20838;31
2024/03/18 01:52:08;;;;;;;5.15;2.22;;;3.20;99.90;;;;;;2701141;39;21557;31
2024/03/18 01:54:42;;;;;;;5.00;1.95;;;3.10;99.90;;;;;;2602480;54;20034;31
2024/03/18 01:57:15;;;;;;;4.60;2.20;;;3.10;99.90;;;;;;2621059;47;20051;31
2024/03/18 01:59:48;;;;;;;4.75;1.73;;;3.10;99.90;;;;;;2602574;54;20028;31
2024/03/18 02:02:23;;;;;;;4.75;1.58;;;3.00;99.90;;;;;;2602555;54;20883;31
2024/03/18 02:04:59;;;;;;;4.55;1.80;;;3.00;99.90;;;;;;2602560;54;20816;31
2024/03/18 02:07:33;;;;;;;4.40;1.65;;;3.00;99.90;;;;;;2602568;54;20048;31
2024/03/18 02:10:09;;;;;;;3.60;2.00;;;3.00;99.90;;;;;;2602558;54;20046;31
2024/03/18 02:12:42;;;;;;;;;;;2.90;99.90;;;;;;2602792;54;20031;31
2024/03/18 02:15:15;;;;;;;1.20;0.95;;;2.90;99.90;;;;;;2701665;39;20459;31
2024/03/18 02:17:50;;;;;;;1.77;1.00;;;2.90;99.90;;;;;;2603378;54;20026;31
2024/03/18 02:20:26;;;;;;;3.85;1.95;;;2.90;99.90;;;;;;2603417;54;20945;31
2024/03/18 02:23:02;;;;;;;3.47;1.27;;;2.90;99.90;;;;;;2603314;54;20034;31
2024/03/18 02:25:35;;;;;;;3.20;1.35;;;2.90;99.90;;;;;;2603191;54;20826;31
2024/03/18 02:28:08;;;;;;;2.95;1.20;;;2.80;99.90;;;;;;2621663;46;21288;31
2024/03/18 02:30:41;;;;;;;3.08;1.00;;;2.80;99.90;;;;;;2603237;54;20865;31
2024/03/18 02:33:15;;;;;;;2.20;0.88;;;2.80;99.90;;;;;;2603158;54;20599;31
2024/03/18 02:35:48;;;;;;;3.00;1.00;;;2.80;99.90;;;;;;2621816;46;20022;31
2024/03/18 02:38:22;;;;;;;2.07;1.00;;;2.80;99.90;;;;;;2603359;54;20027;31
2024/03/18 02:40:56;;;;;;;2.53;0.70;;;2.80;99.90;;;;;;2701706;39;20685;31
2024/03/18 02:43:32;;;;;;;1.43;0.60;;;2.70;99.90;;;;;;2620224;46;20253;31
2024/03/18 02:46:09;;;;;;;2.33;1.73;;;2.70;99.90;;;;;;2603158;54;21715;31
2024/03/18 02:48:42;;;;;;;2.15;0.80;;;2.70;99.90;;;;;;2621640;46;20844;31
2024/03/18 02:51:17;;;;;;;1.48;0.85;;;2.70;99.90;;;;;;2603151;54;20049;31
2024/03/18 02:53:53;;;;;;;1.48;0.70;;;2.70;99.90;;;;;;2603268;54;20030;31
2024/03/18 02:56:26;;;;;;;2.78;0.60;;;2.60;99.90;;;;;;2621673;46;20842;31
2024/03/18 02:59:00;;;;;;;1.50;0.55;;;2.70;99.90;;;;;;2621365;46;20537;31
2024/03/18 03:01:36;;;;;;;2.40;0.47;;;2.60;99.90;;;;;;2603091;54;20037;31
2024/03/18 03:04:12;;;;;;;0.98;0.32;;;2.60;99.90;;;;;;2602633;54;20034;31
2024/03/18 03:06:43;;;;;;;3.20;0.53;;;2.70;99.90;;;;;;2701419;39;21792;31
2024/03/18 03:09:22;;;;;;;1.70;0.50;;;2.60;98.40;;;;;;2603094;54;20828;31
2024/03/18 03:11:58;;;;;;;3.42;0.57;;;2.50;41.30;;;;;;2719966;39;22314;31
2024/03/18 03:14:31;;;;;;;2.05;0.35;;;2.50;1.60;;;;;;2720033;39;20478;31
2024/03/18 03:17:08;;;;;;;1.40;0.30;;;2.40;1.00;;;;;;2603050;54;20120;31
2024/03/18 03:19:42;;;;;;;0.65;0.25;;;2.40;1.00;;;;;;2603159;54;20785;31
2024/03/18 03:22:19;;;;;;;2.10;0.50;;;2.30;1.00;;;;;;2603121;54;20106;31
2024/03/18 03:24:58;;;;;;;2.40;0.55;;;2.20;1.00;;;;;;2602777;54;20077;31
2024/03/18 03:27:32;;;;;;;1.33;0.40;;;2.20;1.00;;;;;;2621530;46;20077;31
2024/03/18 03:30:09;;;;;;;1.60;0.40;;;2.10;1.00;;;;;;2701447;39;20552;31
2024/03/18 03:32:41;;;;;;;1.70;0.55;;;2.10;15.00;;;;;;2603006;54;20912;31
2024/03/18 03:41:07;;;;;;;3.80;0.90;;;2.00;99.90;;;;;;2603152;54;19934;31
2024/03/18 03:43:48;;;;;;;1.80;0.80;;;2.00;99.90;;;;;;2621611;46;20053;31
2024/03/18 03:46:24;;;;;;;1.83;0.60;;;2.00;99.90;;;;;;2603191;54;20948;31
2024/03/18 03:51:35;;;;;;;2.17;0.50;;;1.80;99.90;;;;;;2603149;54;20301;31
2024/03/18 03:54:11;;;;;;;1.95;0.30;;;1.80;99.90;;;;;;2602912;54;20088;31
2024/03/18 03:56:48;;;;;;;1.75;0.50;;;1.70;99.90;;;;;;2602980;54;20873;31
2024/03/18 04:14:00;;;;;;;4.85;1.90;;;1.40;99.90;;;;;;2603018;54;20081;31
2024/03/18 04:16:38;;;;;;;4.95;2.25;;;1.40;1.00;;;;;;2602981;54;20036;31
2024/03/18 04:19:12;;;;;;;4.17;1.50;;;1.40;1.00;;;;;;2603102;54;20038;31
2024/03/18 04:21:46;;;;;;;3.35;1.65;;;1.30;1.00;;;;;;2602787;54;20964;31
2024/03/18 04:24:19;;;;;;;3.87;1.80;;;1.30;1.00;;;;;;2602810;54;21321;31
2024/03/18 04:26:53;;;;;;;3.38;1.25;;;1.20;1.00;;;;;;2602825;54;20046;31
2024/03/18 04:29:26;;;;;;;4.40;2.15;;;1.20;1.00;;;;;;2602888;54;20050;31
2024/03/18 04:32:05;;;;;;;4.78;2.03;;;1.10;1.00;;;;;;2603046;54;20045;31
2024/03/18 04:34:38;;;;;;;5.00;2.17;;;1.10;1.00;;;;;;2602834;54;20049;31
2024/03/18 04:37:11;;;;;;;6.97;2.85;;;1.10;1.00;;;;;;2602990;54;21479;31
2024/03/18 04:39:45;;;;;;;5.47;2.50;;;1.00;1.00;;;;;;2602788;54;20037;31
2024/03/18 04:42:18;;;;;;;6.47;2.88;;;1.00;1.00;;;;;;2602814;54;20101;31
2024/03/18 04:44:50;;;;;;;7.77;2.97;;;1.00;1.00;;;;;;2620711;46;20034;31
2024/03/18 04:47:27;;;;;;;7.75;2.70;;;0.90;1.00;;;;;;2621324;46;20744;31
2024/03/18 04:50:01;;;;;;;7.28;3.00;;;0.90;1.00;;;;;;2603047;54;20031;31
2024/03/18 04:52:36;;;;;;;7.53;2.87;;;0.80;1.00;;;;;;2621556;46;21601;31
2024/03/18 04:55:11;;;;;;;7.13;2.60;;;0.80;1.00;;;;;;2621133;46;20085;31
2024/03/18 04:57:42;;;;;;;6.15;2.70;;;0.70;1.00;;;;;;2621116;46;22579;31
2024/03/18 05:00:17;;;;;;;4.13;2.22;;;0.70;1.00;;;;;;2602856;54;20049;31
2024/03/18 05:02:53;;;;;;;5.95;2.50;;;0.70;1.00;;;;;;2602849;54;20734;31
2024/03/18 05:05:29;;;;;;;4.43;2.28;;;0.70;1.00;;;;;;2602766;54;20089;31
2024/03/18 05:08:03;;;;;;;6.35;2.72;;;0.70;1.00;;;;;;2602632;54;20033;31
2024/03/18 05:10:36;;;;;;;6.33;2.73;;;0.60;1.00;;;;;;2621325;46;20596;31
2024/03/18 05:13:11;;;;;;;5.75;2.58;;;0.60;1.00;;;;;;2602811;54;20123;31
2024/03/18 05:15:45;;;;;;;6.67;2.87;;;0.50;1.00;;;;;;2602867;54;20917;31
2024/03/18 05:18:22;;;;;;;7.07;2.92;;;0.50;1.00;;;;;;2602895;54;20034;31
2024/03/18 05:20:57;;;;;;;6.93;2.97;;;0.50;1.00;;;;;;2621460;46;20861;31
2024/03/18 05:23:30;;;;;;;8.90;2.87;;;0.50;1.00;;;;;;2621273;46;20031;31
2024/03/18 05:26:04;;;;;;;9.05;4.13;;;0.50;1.00;;;;;;2602676;54;21152;31
2024/03/18 05:28:38;;;;;;;10.68;4.60;;;0.50;1.00;;;;;;2602675;54;20132;31
2024/03/18 05:31:12;;;;;;;10.77;4.43;;;0.50;1.00;;;;;;2602543;54;20927;31
2024/03/18 05:33:48;;;;;;;5.90;2.97;;;0.50;1.00;;;;;;2620906;46;20034;31
2024/03/18 05:36:22;;;;;;;8.63;2.65;;;0.60;1.00;;;;;;2602768;54;20537;31
2024/03/18 05:38:56;;;;;;;5.22;2.28;;;0.60;1.00;;;;;;2621115;46;20030;31
2024/03/18 05:41:29;;;;;;;4.28;1.70;;;0.60;1.00;;;;;;2602626;54;20928;31
2024/03/18 05:44:05;;;;;;;3.13;1.33;;;0.70;1.00;;;;;;2602688;54;21545;31
2024/03/18 05:46:39;;;;;;;4.30;2.20;;;0.70;1.00;;;;;;2602392;54;20023;31
2024/03/18 05:49:15;;;;;;;6.90;1.95;;;0.80;1.00;;;;;;2602999;54;20028;31
2024/03/18 05:51:51;;;;;;;6.40;1.80;;;0.90;1.00;;;;;;2603473;54;20026;31
2024/03/18 05:54:32;;;;;;;;;;;0.90;1.00;;;;;;2603692;54;20030;31
2024/03/18 05:57:06;;;;;;;4.90;1.50;;;1.00;1.00;;;;;;2603443;54;21280;31
2024/03/18 05:59:39;;;;;;;3.35;1.30;;;1.10;1.00;;;;;;2603324;54;20023;31
2024/03/18 06:02:13;;;;;;;5.00;1.55;;;1.10;1.00;;;;;;2603412;54;20868;31
2024/03/18 06:04:50;;;;;;;2.42;1.38;;;1.20;1.00;;;;;;2603431;54;20030;31
2024/03/18 06:07:25;;;;;;;5.97;1.33;;;1.40;1.00;;;;;;2603249;54;20026;31
2024/03/18 06:10:00;;;;;;;2.65;1.10;;;1.70;1.00;;;;;;2701758;39;20490;31
2024/03/18 06:12:33;;;;;;;6.93;1.58;;;1.90;1.00;;;;;;2603097;54;20038;31
2024/03/18 06:15:09;;;;;;;7.18;1.90;;;2.00;1.00;;;;;;2621794;46;20027;31
2024/03/18 06:17:44;;;;;;;6.93;1.90;;;2.10;1.00;;;;;;2603251;54;20861;31
2024/03/18 06:20:21;;;;;;;6.47;1.80;;;2.30;1.00;;;;;;2602978;54;20026;31
2024/03/18 06:22:56;;;;;;;2.67;1.10;;;2.40;1.00;;;;;;2602965;54;20031;31
2024/03/18 06:28:15;;;;;;;2.60;1.05;;;2.50;1.00;;;;;;2603002;54;20033;31
2024/03/18 06:30:51;;;;;;;6.13;1.20;;;2.70;1.00;;;;;;2603305;54;20260;31
2024/03/18 06:33:26;;;;;;;5.05;1.85;;;2.80;1.00;;;;;;2603240;54;20242;31
2024/03/18 06:36:08;;;;;;;3.95;1.73;;;2.80;1.00;;;;;;2603265;54;20038;31
2024/03/18 06:38:42;;;;;;;5.47;1.70;;;3.00;1.00;;;;;;2764571;31;20052;31
2024/03/18 06:41:16;;;;;;;5.53;1.33;;;3.30;1.00;;;;;;2603096;54;20916;31
2024/03/18 06:43:53;;;;;;;3.07;1.03;;;3.50;99.90;;;;;;2603248;54;20026;31
2024/03/18 06:46:26;;;;;;;4.00;1.23;;;3.80;99.90;;;;;;2603427;54;22640;31
2024/03/18 06:49:00;;;;;;;3.40;1.33;;;4.20;99.90;;;;;;2603416;54;20030;31
2024/03/18 06:51:36;;;;;;;4.73;1.43;;;4.30;99.90;;;;;;2603235;54;20027;31
2024/03/18 06:54:09;;;;;;;3.08;1.45;;;4.30;1.70;;;;;;2603115;54;20257;31
2024/03/18 06:56:42;;;;;;;4.73;1.67;;;4.40;1.00;;;;;;2701789;39;20492;31
2024/03/18 06:59:16;;;;;;;3.85;1.02;;;4.40;99.90;;;;;;2621640;46;20058;31
2024/03/18 07:01:51;;;;;;;4.20;1.17;;;4.60;99.90;;;;;;2602991;54;21708;31
2024/03/18 07:04:27;;;;;;;2.13;0.93;;;4.70;1.00;;;;;;2610485;46;20031;31
2024/03/18 07:07:03;;;;;;;2.80;0.90;;;4.70;99.90;;;;;;2603235;54;20023;31
2024/03/18 07:09:36;;;;;;;;;;;4.90;1.00;;;;;;2622128;46;20027;31
2024/03/18 07:12:09;;;;;;;4.80;1.27;;;5.10;1.00;;;;;;2603140;54;20713;31
2024/03/18 07:14:44;;;;;;;2.35;0.85;;;5.10;1.00;;;;;;2621427;46;21231;31
2024/03/18 07:17:17;;;;;;;5.38;0.90;;;5.10;99.90;;;;;;2603293;54;20896;31
2024/03/18 07:19:51;;;;;;;2.00;1.00;;;5.30;1.00;;;;;;2602972;54;20053;31
2024/03/18 07:22:29;;;;;;;2.80;0.75;;;5.20;99.90;;;;;;2602870;54;20884;31
2024/03/18 07:25:03;;;;;;;3.80;0.80;;;5.10;99.90;;;;;;2621572;46;20049;31
2024/03/18 07:27:40;;;;;;;5.70;1.10;;;5.10;50.70;;;;;;2603038;54;20870;31
2024/03/18 07:57:28;;;;;;;3.00;0.82;;;6.30;27.00;;;;;;2610943;54;20011;31
2024/03/18 08:00:11;;;;;;;1.85;0.60;;;6.30;99.90;;;;;;2602890;54;20023;31
2024/03/18 08:02:49;;;;;;;4.00;0.90;;;6.30;99.90;;;;;;2701344;39;21556;31
2024/03/18 08:05:25;;;;;;;2.60;0.90;;;6.20;99.90;;;;;;2621615;46;20852;31
2024/03/18 08:08:01;;;;;;;1.75;0.63;;;6.10;51.60;;;;;;2602994;54;20599;31
2024/03/18 08:10:34;;;;;;;5.50;0.70;;;6.10;1.00;;;;;;2603025;54;20906;31
2024/03/18 08:13:14;;;;;;;3.72;1.38;;;6.00;1.00;;;;;;2620693;47;20053;31
2024/03/18 08:15:46;;;;;;;2.85;0.80;;;5.90;1.00;;;;;;2602734;54;20027;31
2024/03/18 08:18:22;;;;;;;1.70;0.60;;;5.80;1.00;;;;;;2621480;46;20040;31
2024/03/18 08:20:55;;;;;;;2.75;0.50;;;5.70;1.00;;;;;;2621217;46;20022;31
2024/03/18 08:23:28;;;;;;;3.50;0.60;;;5.60;99.90;;;;;;2621331;46;20031;31
2024/03/18 08:26:05;;;;;;;1.13;0.40;;;5.70;99.90;;;;;;2621639;46;20044;31
2024/03/18 08:28:38;;;;;;;3.87;0.43;;;5.60;99.90;;;;;;2602896;54;20054;31
2024/03/18 08:31:16;;;;;;;4.95;0.70;;;5.70;99.90;;;;;;2621311;46;20089;31
2024/03/18 08:33:49;;;;;;;2.73;0.73;;;5.60;99.90;;;;;;2603039;54;20030;31
2024/03/18 08:36:23;;;;;;;1.60;0.40;;;5.50;99.90;;;;;;2602966;54;20093;31
2024/03/18 08:38:57;;;;;;;6.18;2.35;;;5.50;99.90;;;;;;2602810;54;20876;31
2024/03/18 08:41:38;;;;;;;2.75;0.70;;;5.40;99.90;;;;;;2620950;46;20053;31
2024/03/18 08:44:11;;;;;;;4.03;0.90;;;5.50;99.90;;;;;;2602832;54;21496;31
2024/03/18 08:46:49;;;;;;;1.55;0.80;;;5.40;99.90;;;;;;2620983;46;20771;31
2024/03/18 08:49:25;;;;;;;4.07;1.85;;;5.40;99.90;;;;;;2602810;54;20108;31
2024/03/18 08:51:57;;;;;;;4.93;1.55;;;5.40;99.90;;;;;;2602793;54;20069;31
2024/03/18 08:54:33;;;;;;;6.75;3.03;;;5.40;99.90;;;;;;2602519;54;20042;31
2024/03/18 08:57:06;;;;;;;3.50;1.50;;;5.30;99.90;;;;;;2602896;54;20085;31
2024/03/18 08:59:40;;;;;;;4.15;0.85;;;5.30;99.90;;;;;;2602605;54;20055;31
2024/03/18 09:02:14;;;;;;;1.77;0.60;;;5.30;99.90;;;;;;2602802;54;20061;31
2024/03/18 09:04:49;;;;;;;4.17;0.70;;;5.30;99.90;;;;;;2620935;46;20054;31
2024/03/18 09:07:23;;;;;;;3.65;0.80;;;5.30;1.00;;;;;;2719699;39;20743;31
2024/03/18 09:09:57;;;;;;;3.35;0.50;;;5.30;1.00;;;;;;2621123;46;20893;31
2024/03/18 09:12:31;;;;;;;3.03;0.88;;;5.40;1.00;;;;;;2701297;39;20427;31
2024/03/18 09:15:11;;;;;;;3.53;0.95;;;5.30;1.00;;;;;;2602888;54;20038;31
2024/03/18 09:17:50;;;;;;;5.55;1.08;;;5.30;1.00;;;;;;2602701;54;20877;31
2024/03/18 09:20:25;;;;;;;4.45;1.75;;;5.30;1.00;;;;;;2602706;54;20889;31
2024/03/18 09:22:58;;;;;;;4.57;1.58;;;5.40;1.00;;;;;;2602216;54;20056;31
2024/03/18 09:25:33;;;;;;;2.85;0.90;;;5.40;99.90;;;;;;2602658;54;21282;31
2024/03/18 09:28:09;;;;;;;4.68;1.08;;;5.40;99.90;;;;;;2701030;39;20490;31
2024/03/18 09:30:42;;;;;;;2.70;0.50;;;5.50;99.90;;;;;;2602655;54;20030;31
2024/03/18 09:36:29;;;;;;;1.58;0.55;;;5.50;99.90;;;;;;2610536;54;20030;31
2024/03/18 09:39:02;;;;;;;2.75;0.60;;;5.50;99.90;;;;;;2602564;54;20902;31
2024/03/18 09:41:35;;;;;;;2.95;1.38;;;5.60;99.90;;;;;;2620963;46;21125;31
2024/03/18 09:44:11;;;;;;;2.45;0.55;;;5.70;1.00;;;;;;2602766;54;20949;31
2024/03/18 09:46:46;;;;;;;6.55;0.88;;;5.80;1.00;;;;;;2772355;31;21566;31
2024/03/18 09:49:22;;;;;;;3.57;1.40;;;5.70;99.90;;;;;;2602671;54;20037;31
2024/03/18 09:51:59;;;;;;;4.05;0.90;;;5.80;99.90;;;;;;2602555;54;20838;31
2024/03/18 09:54:32;;;;;;;4.00;0.80;;;5.80;1.00;;;;;;2602388;54;20097;31
2024/03/18 09:57:11;;;;;;;5.90;0.75;;;5.80;99.90;;;;;;2602482;54;20882;31
2024/03/18 09:59:44;;;;;;;2.10;0.75;;;5.70;99.90;;;;;;2701163;39;20470;31
2024/03/18 10:02:19;;;;;;;3.92;1.30;;;5.80;99.90;;;;;;2602589;54;20796;31
2024/03/18 10:04:52;;;;;;;2.38;0.90;;;5.80;99.90;;;;;;2602435;54;20081;31
2024/03/18 10:07:29;;;;;;;3.00;0.75;;;5.80;99.90;;;;;;2602413;54;20027;31
2024/03/18 10:10:02;;;;;;;3.90;0.90;;;5.80;99.90;;;;;;2621177;47;20115;31
2024/03/18 10:12:36;;;;;;;2.90;0.70;;;5.80;99.90;;;;;;2602596;54;20737;31
2024/03/18 10:15:12;;;;;;;1.85;0.75;;;5.80;99.90;;;;;;2602479;54;20038;31
2024/03/18 10:17:48;;;;;;;2.83;1.02;;;5.80;99.90;;;;;;2620759;47;20035;31
2024/03/18 10:20:21;;;;;;;3.80;1.25;;;5.80;99.90;;;;;;2602571;54;22336;31
2024/03/18 10:22:57;;;;;;;3.00;1.13;;;5.90;99.90;;;;;;2602319;54;20034;31
2024/03/18 10:25:34;;;;;;;4.78;0.90;;;5.90;99.90;;;;;;2620536;47;20881;31
2024/03/18 10:28:08;;;;;;;;;;;6.00;99.90;;;;;;2602428;54;20094;31
2024/03/18 10:30:41;;;;;;;1.90;0.80;;;6.10;99.90;;;;;;2602604;54;20740;31
2024/03/18 10:33:18;;;;;;;3.03;0.80;;;6.20;99.90;;;;;;2602384;54;20023;31
2024/03/18 10:35:52;;;;;;;5.15;1.02;;;6.20;99.90;;;;;;2621654;47;20885;31
2024/03/18 10:38:28;;;;;;;2.25;0.80;;;6.30;99.90;;;;;;2603107;54;20093;31
2024/03/18 10:41:02;;;;;;;4.03;1.27;;;6.30;99.90;;;;;;2603105;54;20054;31
2024/03/18 10:43:36;;;;;;;4.00;1.05;;;6.30;99.90;;;;;;2621477;46;21976;31
2024/03/18 10:46:10;;;;;;;2.07;0.67;;;6.40;99.90;;;;;;2622019;46;20753;31
2024/03/18 10:48:43;;;;;;;2.58;0.90;;;6.40;99.90;;;;;;2603086;54;20842;31
2024/03/18 10:51:15;;;;;;;2.35;1.15;;;6.40;99.90;;;;;;2603172;54;20844;31
2024/03/18 10:53:52;;;;;;;3.70;1.00;;;6.50;99.90;;;;;;2621328;46;21361;31
2024/03/18 10:56:28;;;;;;;2.00;0.70;;;6.70;99.90;;;;;;2603167;54;20026;31
2024/03/18 10:59:01;;;;;;;2.45;0.90;;;6.80;99.90;;;;;;2603201;54;20022;31
2024/03/18 11:01:37;;;;;;;2.75;0.70;;;6.80;99.90;;;;;;2603165;54;20930;31
2024/03/18 11:04:20;;;;;;;4.00;0.60;;;6.70;99.90;;;;;;2603066;54;20034;31
2024/03/18 11:06:56;;;;;;;2.03;0.70;;;6.70;99.90;;;;;;2603068;54;20943;31
2024/03/18 11:09:38;;;;;;;3.35;0.75;;;6.70;99.90;;;;;;2603076;54;20040;31
2024/03/18 11:12:19;;;;;;;4.30;0.95;;;6.60;99.90;;;;;;2620994;46;20865;31
2024/03/18 11:15:08;;;;;;;3.93;1.20;;;6.50;99.90;;;;;;2621348;46;21835;31
2024/03/18 11:17:43;;;;;;;4.85;0.98;;;6.50;99.90;;;;;;2603228;54;21275;31
2024/03/18 11:20:18;;;;;;;3.85;0.90;;;6.40;99.90;;;;;;2621486;46;20077;31
2024/03/18 11:22:57;;;;;;;3.45;1.17;;;6.30;99.90;;;;;;2602857;54;20092;31
2024/03/18 11:25:33;;;;;;;7.05;2.05;;;6.30;99.90;;;;;;2603092;54;20031;31
2024/03/18 11:28:04;;;;;;;4.63;2.25;;;6.30;99.90;;;;;;2603112;54;21256;31
2024/03/18 11:30:39;;;;;;;3.78;1.35;;;6.30;99.90;;;;;;2602996;54;20868;31
2024/03/18 11:33:13;;;;;;;3.72;0.88;;;6.20;99.90;;;;;;2602961;54;20889;31
2024/03/18 11:35:48;;;;;;;2.15;0.90;;;6.30;99.90;;;;;;2602927;54;20038;31
2024/03/18 11:38:22;;;;;;;2.90;0.80;;;6.20;99.90;;;;;;2602948;54;20069;31
2024/03/18 11:40:59;;;;;;;2.00;0.80;;;6.20;99.90;;;;;;2603088;54;20881;31
2024/03/18 11:43:36;;;;;;;2.35;0.90;;;6.20;99.90;;;;;;2602912;54;20031;31
2024/03/18 11:46:11;;;;;;;2.35;1.20;;;6.10;99.90;;;;;;2602653;54;20031;31
2024/03/18 11:48:44;;;;;;;1.48;0.60;;;6.10;99.90;;;;;;2603074;54;20074;31
2024/03/18 11:51:18;;;;;;;3.57;0.60;;;6.10;99.90;;;;;;2602152;54;20888;31
2024/03/18 11:53:52;;;;;;;2.95;0.90;;;6.10;99.90;;;;;;2602946;54;20022;31
2024/03/18 11:56:28;;;;;;;1.20;0.50;;;6.00;99.90;;;;;;2603135;54;20824;31
2024/03/18 11:59:02;;;;;;;;;;;6.00;99.90;;;;;;2621552;46;20053;31
2024/03/18 12:01:37;;;;;;;2.03;0.82;;;6.00;99.90;;;;;;2602965;54;19997;31
2024/03/18 12:04:10;;;;;;;3.70;0.68;;;5.90;99.90;;;;;;2602978;54;20932;31
2024/03/18 12:06:45;;;;;;;4.45;1.02;;;5.90;99.90;;;;;;2621547;46;20089;31
2024/03/18 12:09:21;;;;;;;2.58;0.77;;;5.90;99.90;;;;;;2602862;54;20023;31
2024/03/18 12:11:57;;;;;;;6.07;0.77;;;5.90;99.90;;;;;;2603004;54;21006;31
2024/03/18 12:14:31;;;;;;;1.70;0.60;;;5.80;99.90;;;;;;2602928;54;20859;31
2024/03/18 12:17:05;;;;;;;2.80;0.70;;;5.80;99.90;;;;;;2621205;46;20116;31
2024/03/18 12:19:40;;;;;;;2.72;0.68;;;5.80;99.90;;;;;;2621229;46;20037;31
2024/03/18 12:22:14;;;;;;;1.55;0.70;;;5.80;99.90;;;;;;2602987;54;20903;31
2024/03/18 12:30:30;;;;;;;2.50;1.00;;;5.80;99.90;;;;;;2621075;46;20772;31
2024/03/18 12:33:09;;;;;;;2.80;1.02;;;5.70;99.90;;;;;;2603015;54;20901;31
2024/03/18 12:35:44;;;;;;;2.70;1.05;;;5.70;99.90;;;;;;2602760;54;20030;31
2024/03/18 12:38:18;;;;;;;3.33;1.88;;;5.60;99.90;;;;;;2621015;46;20049;31
2024/03/18 12:40:53;;;;;;;2.88;1.02;;;5.70;99.90;;;;;;2602813;54;20034;31
2024/03/18 12:43:30;;;;;;;3.97;0.90;;;5.60;99.90;;;;;;2602661;54;20030;31
2024/03/18 12:46:05;;;;;;;2.25;1.05;;;5.70;99.90;;;;;;2602754;54;20031;31
2024/03/18 12:48:38;;;;;;;3.20;1.00;;;5.60;99.90;;;;;;2621293;46;20734;31
2024/03/18 12:51:15;;;;;;;4.45;0.93;;;5.60;99.90;;;;;;2602976;54;20088;31
2024/03/18 12:53:49;;;;;;;2.35;0.70;;;5.60;99.90;;;;;;2602924;54;20780;31
2024/03/18 12:56:25;;;;;;;4.72;1.10;;;5.60;99.90;;;;;;2602699;54;20026;31
2024/03/18 12:59:01;;;;;;;4.40;0.70;;;5.60;99.90;;;;;;2602833;54;21622;31
2024/03/18 13:01:34;;;;;;;2.95;0.85;;;5.70;99.90;;;;;;2602879;54;20048;31
2024/03/18 13:04:08;;;;;;;5.90;1.13;;;5.60;99.90;;;;;;2602542;54;20034;31
2024/03/18 13:06:43;;;;;;;2.30;0.80;;;5.70;99.90;;;;;;2602701;54;20757;31
2024/03/18 13:09:21;;;;;;;3.38;0.80;;;5.70;99.90;;;;;;2602675;54;20172;31
2024/03/18 13:11:57;;;;;;;2.72;0.80;;;5.70;99.90;;;;;;2602771;54;20042;31
2024/03/18 13:14:32;;;;;;;;;;;5.70;99.90;;;;;;2602935;54;20837;31
2024/03/18 13:17:06;;;;;;;2.75;0.90;;;5.70;99.90;;;;;;2602839;54;20407;31
2024/03/18 13:19:39;;;;;;;2.65;1.05;;;5.60;99.90;;;;;;2602800;54;20834;31
2024/03/18 13:22:13;;;;;;;2.55;0.90;;;5.70;99.90;;;;;;2602793;54;20030;31
2024/03/18 13:24:48;;;;;;;3.15;0.90;;;5.70;99.90;;;;;;2602595;54;20093;31
2024/03/18 13:27:22;;;;;;;2.40;0.82;;;5.70;99.90;;;;;;2602534;54;20069;31
2024/03/18 13:29:58;;;;;;;1.90;1.17;;;5.70;99.90;;;;;;2602677;54;20033;31
2024/03/18 13:32:32;;;;;;;3.38;1.05;;;5.70;99.90;;;;;;2602511;54;20030;31
2024/03/18 13:35:06;;;;;;;3.13;1.08;;;5.80;99.90;;;;;;2602644;54;20030;31
2024/03/18 13:37:40;;;;;;;1.77;1.20;;;5.80;99.90;;;;;;2602548;54;20042;31
2024/03/18 13:40:14;;;;;;;2.25;1.00;;;5.80;99.90;;;;;;2602689;54;20030;31
2024/03/18 13:42:48;;;;;;;3.42;1.13;;;5.80;99.90;;;;;;2620781;46;20895;31
2024/03/18 13:45:24;;;;;;;2.38;1.20;;;5.80;99.90;;;;;;2602586;54;20924;31
2024/03/18 13:48:03;;;;;;;4.22;1.00;;;5.80;99.90;;;;;;2602543;54;20037;31
2024/03/18 13:50:37;;;;;;;2.35;1.10;;;5.80;99.90;;;;;;2620673;47;20027;31
2024/03/18 13:53:10;;;;;;;2.28;1.30;;;5.80;99.90;;;;;;2602564;54;20929;31
2024/03/18 13:55:44;;;;;;;3.63;1.15;;;5.80;99.90;;;;;;2602727;54;20033;31
2024/03/18 13:58:17;;;;;;;2.15;1.10;;;5.80;99.90;;;;;;2602491;54;20924;31
2024/03/18 14:00:52;;;;;;;5.88;1.48;;;5.70;99.90;;;;;;2620771;47;21846;31
2024/03/18 14:03:25;;;;;;;3.85;2.65;;;5.70;99.90;;;;;;2620706;47;20813;31
2024/03/18 14:05:59;;;;;;;2.60;1.40;;;5.70;99.90;;;;;;2602597;54;20964;31
2024/03/18 14:08:34;;;;;;;2.55;1.20;;;5.70;99.90;;;;;;2602609;54;21251;31
2024/03/18 14:11:08;;;;;;;5.30;1.50;;;5.70;99.90;;;;;;2603131;54;20033;31
2024/03/18 14:13:41;;;;;;;2.50;1.15;;;5.70;99.90;;;;;;2603488;54;20027;31
2024/03/18 14:16:18;;;;;;;3.35;1.20;;;5.70;99.90;;;;;;2603367;54;20027;31
2024/03/18 14:18:53;;;;;;;2.40;1.50;;;5.70;99.90;;;;;;2603216;54;20113;31
2024/03/18 14:21:26;;;;;;;3.10;1.30;;;5.70;99.90;;;;;;2603238;54;20098;31
2024/03/18 14:24:00;;;;;;;4.00;1.23;;;5.60;99.90;;;;;;2603112;54;20052;31
2024/03/18 14:26:35;;;;;;;4.93;1.75;;;5.60;99.90;;;;;;2603198;54;20078;31
2024/03/18 14:29:08;;;;;;;4.07;1.63;;;5.60;99.90;;;;;;2603221;54;20927;31
2024/03/18 14:31:45;;;;;;;2.13;1.00;;;5.60;99.90;;;;;;2603176;54;20874;31
2024/03/18 14:34:18;;;;;;;2.78;1.40;;;5.60;99.90;;;;;;2603344;54;20031;31
2024/03/18 14:36:51;;;;;;;2.30;1.10;;;5.50;99.90;;;;;;2621483;46;20901;31
2024/03/18 14:39:24;;;;;;;3.33;1.93;;;5.50;99.90;;;;;;2603348;54;20026;31
2024/03/18 14:41:57;;;;;;;4.22;2.22;;;5.50;99.90;;;;;;2603320;54;20052;31
2024/03/18 14:44:33;;;;;;;3.22;1.60;;;5.50;99.90;;;;;;2603321;54;20038;31
2024/03/18 14:47:09;;;;;;;3.55;1.42;;;5.50;99.90;;;;;;2603063;54;20772;31
2024/03/18 14:49:43;;;;;;;5.70;1.75;;;5.50;99.90;;;;;;2603324;54;20883;31
2024/03/18 14:52:16;;;;;;;2.88;1.58;;;5.50;99.90;;;;;;2603074;54;20896;31
2024/03/18 14:54:52;;;;;;;3.95;1.48;;;5.40;1.00;;;;;;2603291;54;20842;31